OEFFB LDSP-LFMN
Flight info
| Callsign | OEFFB |
|---|---|
| Flight time | 1h 2m |
| Altitude | 37000 |
| Route | TORPO M730 ANC/N0454F180 M730 GEN/N0460F190 M859 LAGEN Q712 ENOBA/N0483F250 Z185 ASBOP/N0460F190 Z185 BORDI |
| Aircraft | C750/M-SBDE3FGHRWXY/S |
Departure
| Time | 2026-05-04 21:37 |
|---|---|
| Airport | Split Saint Jerome Airport (LDSP) |
Arrival
| Time | 2026-05-04 22:40 |
|---|---|
| Airport | Nice-Côte d'Azur Airport (LFMN) |
| Time | Latitude | Longitude | Altitude | Speed | Heading |
|---|---|---|---|---|---|
| 2026-05-04 21:37 | 43.37304 | 15.95030 | 26211 ft | 314 kts | 280° |
| 2026-05-04 21:37 | 43.37687 | 15.92060 | 26968 ft | 317 kts | 280° |
| 2026-05-04 21:37 | 43.38085 | 15.89070 | 27742 ft | 319 kts | 280° |
| 2026-05-04 21:38 | 43.38486 | 15.86054 | 28523 ft | 322 kts | 280° |
| 2026-05-04 21:38 | 43.38886 | 15.83005 | 29288 ft | 325 kts | 280° |
| 2026-05-04 21:38 | 43.39288 | 15.79929 | 30043 ft | 329 kts | 280° |
| 2026-05-04 21:38 | 43.39695 | 15.76818 | 30710 ft | 332 kts | 280° |
| 2026-05-04 21:39 | 43.40104 | 15.73684 | 31366 ft | 334 kts | 280° |
| 2026-05-04 21:39 | 43.40516 | 15.70524 | 32022 ft | 337 kts | 280° |
| 2026-05-04 21:39 | 43.40930 | 15.67336 | 32670 ft | 340 kts | 280° |
| 2026-05-04 21:39 | 43.41347 | 15.64124 | 33310 ft | 343 kts | 280° |
| 2026-05-04 21:40 | 43.41759 | 15.60934 | 34053 ft | 342 kts | 281° |
| 2026-05-04 21:40 | 43.42177 | 15.57695 | 34636 ft | 345 kts | 281° |
| 2026-05-04 21:40 | 43.42596 | 15.54441 | 35196 ft | 347 kts | 281° |
| 2026-05-04 21:40 | 43.43019 | 15.51152 | 35748 ft | 350 kts | 281° |
| 2026-05-04 21:41 | 43.43443 | 15.47841 | 36293 ft | 352 kts | 281° |
| 2026-05-04 21:41 | 43.43869 | 15.44511 | 36833 ft | 355 kts | 281° |
| 2026-05-04 21:41 | 43.44303 | 15.41113 | 36981 ft | 368 kts | 281° |
| 2026-05-04 21:41 | 43.44755 | 15.37566 | 36990 ft | 384 kts | 281° |
| 2026-05-04 21:42 | 43.45222 | 15.33884 | 37102 ft | 396 kts | 281° |
| 2026-05-04 21:42 | 43.45703 | 15.30076 | 37105 ft | 411 kts | 281° |
| 2026-05-04 21:42 | 43.46200 | 15.26140 | 37109 ft | 424 kts | 281° |
| 2026-05-04 21:42 | 43.46711 | 15.22077 | 37111 ft | 437 kts | 281° |
| 2026-05-04 21:43 | 43.47235 | 15.17903 | 37105 ft | 449 kts | 281° |
| 2026-05-04 21:43 | 43.48308 | 15.09306 | 37110 ft | 467 kts | 281° |
| 2026-05-04 21:44 | 43.49417 | 15.00364 | 37106 ft | 478 kts | 281° |
| 2026-05-04 21:44 | 43.49974 | 14.95847 | 37526 ft | 468 kts | 281° |
| 2026-05-04 21:44 | 43.50477 | 14.91717 | 39905 ft | 414 kts | 280° |
| 2026-05-04 21:44 | 43.50928 | 14.87820 | 39369 ft | 418 kts | 279° |
| 2026-05-04 21:45 | 43.51330 | 14.83916 | 39501 ft | 401 kts | 279° |
| 2026-05-04 21:45 | 43.51673 | 14.80088 | 39053 ft | 402 kts | 278° |
| 2026-05-04 21:45 | 43.52010 | 14.76249 | 37927 ft | 411 kts | 278° |
| 2026-05-04 21:45 | 43.52363 | 14.72215 | 36965 ft | 432 kts | 278° |
| 2026-05-04 21:46 | 43.52717 | 14.68115 | 37098 ft | 426 kts | 278° |
| 2026-05-04 21:46 | 43.53396 | 14.60047 | 37103 ft | 433 kts | 277° |
| 2026-05-04 21:46 | 43.53745 | 14.55860 | 37109 ft | 445 kts | 277° |
| 2026-05-04 21:47 | 43.54093 | 14.51644 | 37098 ft | 430 kts | 277° |
| 2026-05-04 21:47 | 43.54409 | 14.47723 | 37085 ft | 414 kts | 277° |
| 2026-05-04 21:47 | 43.54727 | 14.43723 | 37082 ft | 426 kts | 277° |
| 2026-05-04 21:47 | 43.55054 | 14.39596 | 37088 ft | 439 kts | 277° |
| 2026-05-04 21:48 | 43.55386 | 14.35359 | 37099 ft | 449 kts | 277° |
| 2026-05-04 21:48 | 43.56055 | 14.26721 | 37093 ft | 456 kts | 277° |
| 2026-05-04 21:49 | 43.56713 | 14.18023 | 37078 ft | 454 kts | 277° |
| 2026-05-04 21:49 | 43.57354 | 14.09338 | 37081 ft | 455 kts | 277° |
| 2026-05-04 21:50 | 43.57978 | 14.00642 | 37080 ft | 455 kts | 277° |
| 2026-05-04 21:50 | 43.58582 | 13.92008 | 37078 ft | 455 kts | 276° |
| 2026-05-04 21:51 | 43.59175 | 13.83289 | 37079 ft | 459 kts | 276° |
| 2026-05-04 21:51 | 43.59765 | 13.74397 | 37091 ft | 470 kts | 276° |
| 2026-05-04 21:52 | 43.60351 | 13.65366 | 37088 ft | 474 kts | 276° |
| 2026-05-04 21:52 | 43.60925 | 13.56283 | 37077 ft | 471 kts | 276° |
| 2026-05-04 21:53 | 43.61471 | 13.47255 | 37075 ft | 471 kts | 275° |
| 2026-05-04 21:53 | 43.61078 | 13.38211 | 37068 ft | 474 kts | 265° |
| 2026-05-04 21:54 | 43.60049 | 13.29284 | 37074 ft | 475 kts | 263° |
| 2026-05-04 21:54 | 43.58887 | 13.20304 | 37090 ft | 475 kts | 262° |
| 2026-05-04 21:55 | 43.57702 | 13.11343 | 37088 ft | 473 kts | 262° |
| 2026-05-04 21:55 | 43.56523 | 13.02439 | 37091 ft | 472 kts | 262° |
| 2026-05-04 21:56 | 43.55322 | 12.93530 | 37097 ft | 472 kts | 261° |
| 2026-05-04 21:56 | 43.54045 | 12.84648 | 37102 ft | 472 kts | 261° |
| 2026-05-04 21:57 | 43.52766 | 12.75751 | 37108 ft | 471 kts | 262° |
| 2026-05-04 21:57 | 43.52145 | 12.66843 | 37097 ft | 466 kts | 270° |
| 2026-05-04 21:58 | 43.52164 | 12.58016 | 37102 ft | 463 kts | 270° |
| 2026-05-04 21:58 | 43.51725 | 12.49131 | 37111 ft | 466 kts | 268° |
| 2026-05-04 21:59 | 43.51516 | 12.40208 | 37127 ft | 466 kts | 269° |
| 2026-05-04 21:59 | 43.51174 | 12.31301 | 37131 ft | 466 kts | 268° |
| 2026-05-04 22:00 | 43.50886 | 12.22381 | 37128 ft | 466 kts | 269° |
| 2026-05-04 22:00 | 43.50567 | 12.13465 | 37127 ft | 466 kts | 268° |
| 2026-05-04 22:01 | 43.50246 | 12.04547 | 37128 ft | 465 kts | 268° |
| 2026-05-04 22:01 | 43.49923 | 11.95667 | 37135 ft | 464 kts | 268° |
| 2026-05-04 22:02 | 43.49586 | 11.86778 | 37130 ft | 465 kts | 268° |
| 2026-05-04 22:02 | 43.49250 | 11.77931 | 37127 ft | 465 kts | 268° |
| 2026-05-04 22:03 | 43.48957 | 11.70475 | 37128 ft | 466 kts | 268° |
| 2026-05-04 22:03 | 43.48548 | 11.60120 | 37128 ft | 465 kts | 267° |
| 2026-05-04 22:04 | 43.48185 | 11.51235 | 37128 ft | 464 kts | 267° |
| 2026-05-04 22:04 | 43.47818 | 11.42352 | 37124 ft | 465 kts | 267° |
| 2026-05-04 22:05 | 43.47490 | 11.33524 | 37124 ft | 464 kts | 268° |
| 2026-05-04 22:05 | 43.47231 | 11.26070 | 37111 ft | 465 kts | 267° |
| 2026-05-04 22:06 | 43.46832 | 11.15746 | 37113 ft | 464 kts | 267° |
| 2026-05-04 22:06 | 43.46498 | 11.06864 | 37115 ft | 464 kts | 267° |
| 2026-05-04 22:07 | 43.46146 | 10.97970 | 37114 ft | 465 kts | 267° |
| 2026-05-04 22:07 | 43.45795 | 10.89078 | 37112 ft | 465 kts | 267° |
| 2026-05-04 22:08 | 43.45433 | 10.80216 | 37105 ft | 467 kts | 267° |
| 2026-05-04 22:08 | 43.45063 | 10.71266 | 37094 ft | 469 kts | 267° |
| 2026-05-04 22:09 | 43.44686 | 10.62342 | 37097 ft | 470 kts | 267° |
| 2026-05-04 22:09 | 43.44301 | 10.53355 | 37105 ft | 470 kts | 266° |
| 2026-05-04 22:10 | 43.43906 | 10.44370 | 37103 ft | 470 kts | 266° |
| 2026-05-04 22:10 | 43.43510 | 10.35476 | 37084 ft | 444 kts | 266° |
| 2026-05-04 22:11 | 43.43123 | 10.26934 | 37079 ft | 453 kts | 266° |
| 2026-05-04 22:11 | 43.42720 | 10.18194 | 37093 ft | 461 kts | 266° |
| 2026-05-04 22:11 | 43.42517 | 10.13836 | 36765 ft | 458 kts | 266° |
| 2026-05-04 22:12 | 43.42382 | 10.10942 | 36364 ft | 439 kts | 265° |
| 2026-05-04 22:12 | 43.42128 | 10.05596 | 35638 ft | 408 kts | 265° |
| 2026-05-04 22:12 | 43.41946 | 10.01785 | 35117 ft | 393 kts | 265° |
| 2026-05-04 22:12 | 43.41764 | 9.98024 | 34595 ft | 396 kts | 265° |
| 2026-05-04 22:13 | 43.41580 | 9.94226 | 34082 ft | 399 kts | 265° |
| 2026-05-04 22:13 | 43.41394 | 9.90404 | 33545 ft | 402 kts | 265° |
| 2026-05-04 22:13 | 43.41207 | 9.86595 | 33020 ft | 406 kts | 265° |
| 2026-05-04 22:13 | 43.41077 | 9.83967 | 32658 ft | 409 kts | 265° |
| 2026-05-04 22:14 | 43.40882 | 9.80045 | 32096 ft | 413 kts | 264° |
| 2026-05-04 22:14 | 43.40622 | 9.74840 | 31382 ft | 414 kts | 264° |
| 2026-05-04 22:14 | 43.40421 | 9.70877 | 30835 ft | 417 kts | 264° |
| 2026-05-04 22:14 | 43.40219 | 9.66883 | 30277 ft | 418 kts | 264° |
| 2026-05-04 22:15 | 43.40084 | 9.64238 | 29879 ft | 416 kts | 264° |
| 2026-05-04 22:15 | 43.39811 | 9.58931 | 29144 ft | 415 kts | 264° |
| 2026-05-04 22:15 | 43.39606 | 9.54976 | 28600 ft | 415 kts | 264° |
| 2026-05-04 22:15 | 43.39469 | 9.52354 | 28233 ft | 414 kts | 264° |
| 2026-05-04 22:16 | 43.39194 | 9.47107 | 27510 ft | 414 kts | 264° |
| 2026-05-04 22:16 | 43.38984 | 9.43155 | 26971 ft | 415 kts | 264° |
| 2026-05-04 22:16 | 43.38774 | 9.39197 | 26425 ft | 414 kts | 264° |
| 2026-05-04 22:16 | 43.38562 | 9.35248 | 25877 ft | 414 kts | 264° |
| 2026-05-04 22:17 | 43.38349 | 9.31296 | 25333 ft | 414 kts | 264° |
| 2026-05-04 22:17 | 43.38204 | 9.28633 | 24964 ft | 414 kts | 264° |
| 2026-05-04 22:17 | 43.37918 | 9.23395 | 24241 ft | 414 kts | 263° |
| 2026-05-04 22:17 | 43.37761 | 9.19439 | 23671 ft | 416 kts | 268° |
| 2026-05-04 22:18 | 43.37922 | 9.15474 | 23032 ft | 413 kts | 272° |
| 2026-05-04 22:18 | 43.38173 | 9.11560 | 22412 ft | 408 kts | 272° |
| 2026-05-04 22:18 | 43.38366 | 9.07693 | 21819 ft | 404 kts | 271° |
| 2026-05-04 22:18 | 43.38454 | 9.05138 | 21426 ft | 401 kts | 270° |
| 2026-05-04 22:19 | 43.38592 | 9.01334 | 20859 ft | 397 kts | 271° |
| 2026-05-04 22:19 | 43.38830 | 8.96352 | 20127 ft | 392 kts | 271° |
| 2026-05-04 22:19 | 43.38950 | 8.93843 | 19837 ft | 382 kts | 271° |
| 2026-05-04 22:19 | 43.39147 | 8.89119 | 19994 ft | 372 kts | 270° |
| 2026-05-04 22:20 | 43.39244 | 8.86705 | 20015 ft | 374 kts | 271° |
| 2026-05-04 22:20 | 43.39397 | 8.83133 | 20019 ft | 374 kts | 271° |
| 2026-05-04 22:20 | 43.39551 | 8.79613 | 20021 ft | 374 kts | 271° |
| 2026-05-04 22:20 | 43.39703 | 8.75957 | 20029 ft | 395 kts | 271° |
| 2026-05-04 22:21 | 43.39860 | 8.72071 | 20025 ft | 418 kts | 271° |
| 2026-05-04 22:21 | 43.40029 | 8.68054 | 20028 ft | 423 kts | 271° |
| 2026-05-04 22:21 | 43.40201 | 8.63989 | 20024 ft | 427 kts | 271° |
| 2026-05-04 22:21 | 43.40367 | 8.59909 | 20024 ft | 429 kts | 271° |
| 2026-05-04 22:22 | 43.40530 | 8.55817 | 20025 ft | 429 kts | 271° |
| 2026-05-04 22:22 | 43.40694 | 8.51707 | 20022 ft | 429 kts | 271° |
| 2026-05-04 22:22 | 43.40858 | 8.47605 | 20022 ft | 430 kts | 271° |
| 2026-05-04 22:22 | 43.41019 | 8.43494 | 20022 ft | 430 kts | 271° |
| 2026-05-04 22:23 | 43.41178 | 8.39382 | 20021 ft | 430 kts | 271° |
| 2026-05-04 22:23 | 43.41337 | 8.35275 | 20023 ft | 430 kts | 271° |
| 2026-05-04 22:23 | 43.41494 | 8.31167 | 20022 ft | 429 kts | 270° |
| 2026-05-04 22:23 | 43.41647 | 8.27126 | 20022 ft | 429 kts | 270° |
| 2026-05-04 22:24 | 43.41801 | 8.23013 | 20022 ft | 429 kts | 270° |
| 2026-05-04 22:24 | 43.41952 | 8.18914 | 20018 ft | 429 kts | 270° |
| 2026-05-04 22:24 | 43.42104 | 8.14806 | 19979 ft | 430 kts | 270° |
| 2026-05-04 22:24 | 43.42252 | 8.10791 | 19481 ft | 403 kts | 270° |
| 2026-05-04 22:25 | 43.42390 | 8.07053 | 18966 ft | 383 kts | 270° |
| 2026-05-04 22:25 | 43.42516 | 8.03387 | 18463 ft | 381 kts | 270° |
| 2026-05-04 22:25 | 43.42641 | 7.99758 | 17929 ft | 378 kts | 270° |
| 2026-05-04 22:25 | 43.42769 | 7.96173 | 17442 ft | 376 kts | 270° |
| 2026-05-04 22:26 | 43.42894 | 7.92623 | 16945 ft | 374 kts | 270° |
| 2026-05-04 22:26 | 43.43016 | 7.89068 | 16454 ft | 369 kts | 270° |
| 2026-05-04 22:26 | 43.43136 | 7.85525 | 15965 ft | 368 kts | 270° |
| 2026-05-04 22:26 | 43.43254 | 7.82036 | 15483 ft | 364 kts | 270° |
| 2026-05-04 22:27 | 43.43370 | 7.78559 | 15005 ft | 364 kts | 270° |
| 2026-05-04 22:27 | 43.43486 | 7.75106 | 14524 ft | 361 kts | 270° |
| 2026-05-04 22:27 | 43.43600 | 7.71652 | 14057 ft | 357 kts | 270° |
| 2026-05-04 22:27 | 43.43712 | 7.68226 | 13555 ft | 355 kts | 270° |
| 2026-05-04 22:28 | 43.43821 | 7.64829 | 13077 ft | 355 kts | 269° |
| 2026-05-04 22:28 | 43.43928 | 7.61461 | 12615 ft | 352 kts | 269° |
| 2026-05-04 22:28 | 43.44035 | 7.58110 | 12171 ft | 354 kts | 270° |
| 2026-05-04 22:28 | 43.44142 | 7.54735 | 11690 ft | 351 kts | 269° |
| 2026-05-04 22:29 | 43.44246 | 7.51377 | 11223 ft | 345 kts | 270° |
| 2026-05-04 22:29 | 43.44348 | 7.48201 | 10786 ft | 320 kts | 269° |
| 2026-05-04 22:29 | 43.44440 | 7.45278 | 10367 ft | 301 kts | 268° |
| 2026-05-04 22:29 | 43.44522 | 7.42442 | 9958 ft | 294 kts | 269° |
| 2026-05-04 22:30 | 43.44603 | 7.39645 | 9552 ft | 291 kts | 268° |
| 2026-05-04 22:30 | 43.44686 | 7.36872 | 9172 ft | 289 kts | 268° |
| 2026-05-04 22:30 | 43.44767 | 7.34114 | 8793 ft | 288 kts | 268° |
| 2026-05-04 22:30 | 43.44849 | 7.31353 | 8418 ft | 290 kts | 268° |
| 2026-05-04 22:31 | 43.44931 | 7.28582 | 8040 ft | 288 kts | 268° |
| 2026-05-04 22:31 | 43.45010 | 7.25827 | 7657 ft | 287 kts | 270° |
| 2026-05-04 22:31 | 43.45088 | 7.23089 | 7284 ft | 287 kts | 269° |
| 2026-05-04 22:31 | 43.45166 | 7.20316 | 6902 ft | 289 kts | 269° |
| 2026-05-04 22:32 | 43.45243 | 7.17608 | 6528 ft | 287 kts | 270° |
| 2026-05-04 22:32 | 43.45320 | 7.14917 | 6139 ft | 275 kts | 269° |
| 2026-05-04 22:32 | 43.45392 | 7.12338 | 5779 ft | 264 kts | 270° |
| 2026-05-04 22:32 | 43.45460 | 7.09854 | 5431 ft | 254 kts | 271° |
| 2026-05-04 22:33 | 43.45526 | 7.07467 | 5105 ft | 245 kts | 271° |
| 2026-05-04 22:33 | 43.45588 | 7.05116 | 4786 ft | 246 kts | 272° |
| 2026-05-04 22:33 | 43.45686 | 7.02792 | 4422 ft | 240 kts | 278° |
| 2026-05-04 22:33 | 43.46384 | 7.00799 | 4006 ft | 231 kts | 317° |
| 2026-05-04 22:34 | 43.47760 | 6.99974 | 3788 ft | 209 kts | 2° |
| 2026-05-04 22:34 | 43.49127 | 7.00386 | 3873 ft | 200 kts | 33° |
| 2026-05-04 22:34 | 43.50166 | 7.01598 | 4005 ft | 201 kts | 47° |
| 2026-05-04 22:34 | 43.51180 | 7.02949 | 3746 ft | 207 kts | 46° |
| 2026-05-04 22:35 | 43.52241 | 7.04296 | 3354 ft | 206 kts | 46° |
| 2026-05-04 22:35 | 43.53413 | 7.05385 | 3068 ft | 202 kts | 31° |
| 2026-05-04 22:35 | 43.54578 | 7.06273 | 2800 ft | 186 kts | 40° |
| 2026-05-04 22:35 | 43.55552 | 7.07477 | 2573 ft | 188 kts | 48° |
| 2026-05-04 22:36 | 43.56405 | 7.08631 | 2330 ft | 157 kts | 49° |
| 2026-05-04 22:36 | 43.57188 | 7.09705 | 2122 ft | 155 kts | 50° |
| 2026-05-04 22:36 | 43.57881 | 7.10645 | 1926 ft | 126 kts | 51° |
| 2026-05-04 22:36 | 43.58475 | 7.11456 | 1763 ft | 116 kts | 50° |
| 2026-05-04 22:37 | 43.59037 | 7.12228 | 1619 ft | 113 kts | 50° |
| 2026-05-04 22:37 | 43.59572 | 7.12965 | 1472 ft | 107 kts | 51° |
| 2026-05-04 22:37 | 43.60106 | 7.13706 | 1334 ft | 108 kts | 52° |
| 2026-05-04 22:37 | 43.60644 | 7.14447 | 1184 ft | 111 kts | 52° |
| 2026-05-04 22:38 | 43.61175 | 7.15192 | 1028 ft | 108 kts | 51° |
| 2026-05-04 22:38 | 43.61684 | 7.15963 | 875 ft | 112 kts | 51° |
| 2026-05-04 22:38 | 43.62229 | 7.16748 | 748 ft | 111 kts | 50° |
| 2026-05-04 22:38 | 43.62763 | 7.17554 | 610 ft | 117 kts | 50° |
| 2026-05-04 22:39 | 43.63313 | 7.18360 | 469 ft | 117 kts | 47° |
| 2026-05-04 22:39 | 43.63905 | 7.19172 | 294 ft | 118 kts | 46° |
| 2026-05-04 22:39 | 43.64492 | 7.19988 | 128 ft | 122 kts | 46° |
| 2026-05-04 22:39 | 43.65079 | 7.20802 | 26 ft | 113 kts | 46° |
| 2026-05-04 22:40 | 43.65564 | 7.21471 | 21 ft | 75 kts | 45° |
| 2026-05-04 22:40 | 43.65803 | 7.21713 | 21 ft | 20 kts | 24° |
| 2026-05-04 22:40 | 43.65978 | 7.21785 | 17 ft | 28 kts | 18° |
| 2026-05-04 22:40 | 43.66161 | 7.21814 | 18 ft | 26 kts | 330° |
| 2026-05-04 22:41 | 43.66251 | 7.21698 | 17 ft | 0 kts | 300° |
| 2026-05-04 22:42 | 43.66255 | 7.21694 | 17 ft | 0 kts | 316° |